Pagrindinis puslapis
METAR-TAF:

METAR-TAF

Oro uostai :

Kosraė, Mikronezija

platuma: 05-21N, ilguma: 162-57E, Aukštis: 3 m

Dabartinis oras

Ataskaita buvo paskelbta 43 minutes, ne 01:50 UTC
Vėjas 11 kt iš Vakarų
Temperatūra 32°C
Drėgmė 71%
Slėgis 1010 hPa
Matomumas: 16.1 km
Išsisklaidę debesys ne aukštis 2000 ft, aukštai iškilę kamuoliniai debesys.
Su prošvaistėmis ne aukštis 30000 ft

METAR: PTSA 170150Z 28011KT 10SM SCT020TCU BKN300 32/26 A2983 RMK TCU E LAST

Laikas: 13:33 (02:33 UTC)

Prognozė

Ataskaita buvo paskelbta 3 valandos ir 13 minutes, ne 23:20 UTC
Prognozė galioja nuo 17 metu 00 UTC su 17 metu 24 UTC
Vėjas 5 kt nuo kintamojo kryptimis
Matomumas: 10 km
Mažai debesys ne aukštis 2000 ft
Nuo 17 metu 0100 UTC
Vėjas 7 kt iš Pietų/Pietvakarių
Matomumas: 10 km
Išsisklaidę debesys ne aukštis 1800 ft
Išsisklaidę debesys ne aukštis 12000 ft
Liūtis kaimynystėje

TAF: PTSA 162320Z 1700/1724 VRB05KT P6SM FEW020 FM170100 21007KT P6SM VCSH SCT018 SCT120

Orai ataskaitas ir orų prognozės (METAR, TAF).

turimą stotys yra geltonos ir raudonos taškus žemėlapyje.

Perkelti pele per norėdami pamatyti stoties vardą.

Tada spustelėkite, norėdami matyti oro stebėjimo ir prognozės.

Norėdami pakeisti žemėlapį: spustelėkite ant žalios mygtukų su juodo kryžiaus žemyn,; žalią mygtuką su brūkšneliu, jei norite nutolinti; arba žalių rodyklių gretimoms žemėlapius.


METAR-TAF: